TAF SKBO
SKBO 270430Z 2706/2806 VRB02KT 9999 SCT018 TEMPO 2708/2712 4000 BCFG SCT012 PROB40 2710/2712 0600 FG SCT005 BECMG 2716/2718 29010KT TEMPO 2719/2722 RA SCT017CB TX20/2718Z TN09/2710Z=
METAR SKBO
SKBO 252300Z 25006KT 4000 RA BKN015 BKN070 14/13 Q1024 NOSIG RMK A3027=
SKBO 251900Z 25015KT 9999 4000S VCSH SCT020TCU 17/13 Q1023 NOSIG RMK TCU VCSH/S A3024=
SKBO 251600Z 12007KT 9999 BKN020 18/10 Q1027 NOSIG RMK A3034=
SKBO 241200Z VRB02KT 9999 4400SE MIFG FEW007 SCT060 13/12 Q1027 NOSIG RMK A3035=
WC SKBO
WS SKBO
ZCZC CCP256 260932 GG MMMXYMYX 260934 SKBOYZYX WSCO31 SKBO 260934 SIGMET SKEC SIGMET 1 VALID 260930/261220 SKBO- SKEC BARRANQUILLA FIR EMBD TS OBS AT 0910Z WI N0752 W07255 - N0626 W07407 - N1007 W07741 - N1105 W07620 - N0752 W07255 TOP FL480 MOV NE 8KT WKN= NNNN
ZCZC CCP960 251921 GG MMMXYMYX 251923 SKBOYZYX WSCO31 SKBO 251923 SIGMET SKED SIGMET 3 VALID 251920/252220 SKBO- SKED BOGOTA FIR EMBD TS OBS AT 1810Z WI N0119 W07402 - N0451 W07000 - N0545 W07102 - N0234 W07446 - N0119 W07402 TOP FL500 MOV W 06KT INTSF= NNNN
WV SKBO
ZCZC CCP771 270454 GG MMMXYMYX 270454 SKBOYZYX WVCO31 SKBO 270456 SIGMET SKED SIGMET A1 VALID 270425/271015 SKBO- SKED BOGOTA FIR VA ERUPTION MT VOLCAN NEVADO DEL RUIZ PSN N0453 W07519 VA CLD OBS 0350Z SFC/FL200 N0505 W07529 - N0453 W07519 - N0452 W07520 - N0502 W07535 - N0505 W07529 MOV NO 10KT= NNNN
ZCZC CCP769 270454 FF MMMXYMYX 270454 SKBOZXOM WVCO31 SKBO 270425 SKED SIGMET A1 VALID 270425/271015 SKBO- SKED BOGOTA FIR VA ERUPTION MT VOLCAN NEVADO DEL RUIZ PSN N0453 W07519 VA CLD OBS 0350Z SFC/FL200 N0505 W07529 - N0453 W07519 - N0452 W07520 - N0502 W07535 - N0505 W07529 MOV NO 10KT= NNNN